Sweeney Granite Mountains, California Weather observations

Data are for 10 minute period ending at time listed.
 Day   Time   Solar   Ave.   Ave.  Ave.  Vector  Max.   Baro.   Total    
  of    of     Rad.   Air    Rel.  Wind   Wind   Wind  Press.  Precip.   
Year   Day            Temp.  Hum.  Speed  Dir.   Gust                    
2017   (PST)  Kw/m2    F      %     mph   deg.    mph    mb.     in.     
-------------------------------------------------------------------------
  85    8:10   0.46   57.9    34    2.9   125     5.6   869.3    0.00 
  85    8:20   0.50   58.7    33    3.6   122     8.3   869.3    0.00 
  85    8:30   0.57   58.4    33    3.5   139    11.2   869.4    0.00 
  85    8:40   0.46   58.0    34    2.8   145     7.3   869.6    0.00 
  85    8:50   0.61   58.4    33    3.5   111     6.9   869.8    0.00 
  85    9:00   0.60   59.4    33    3.2   172     6.9   869.8    0.00 
  85    9:10   0.66   59.3    34    4.5   148    11.0   869.9    0.00 
  85    9:20   0.70   60.2    33    2.8   128     8.0   870.0    0.00 
  85    9:30   0.70   59.0    34    4.7   110     9.6   870.1    0.00 
  85    9:40   0.73   59.6    33    3.0   122     6.7   870.1    0.00 
  85    9:50   0.76   59.7    33    5.0   114     9.9   870.1    0.00 
  85   10:00   0.78   60.4    32    3.3   131    11.7   870.1    0.00 
  85   10:10   0.80   60.6    32    5.3   135    10.2   870.1    0.00 
  85   10:20   0.81   60.2    32    5.5   147    11.5   870.2    0.00 
  85   10:30   0.84   60.2    32    7.1   120    13.0   870.1    0.00 
  85   10:40   0.85   60.2    32    6.1   101    11.5   870.1    0.00 
  85   10:50   0.86   61.1    31    4.3   122    16.7   870.0    0.00 
  85   11:00   0.87   61.7    30    5.0   150    12.1   870.0    0.00 
  85   11:10   0.88   61.0    31    5.9   117    16.0   870.0    0.00 
  85   11:20   0.88   61.0    32    7.3   102    13.8   869.9    0.00 
  85   11:30   0.89   61.0    32    7.8   110    19.6   869.9    0.00 
  85   11:40   0.89   60.7    32    8.8   108    18.8   869.9    0.00 
  85   11:50   0.89   60.7    32    6.5   104    16.5   869.8    0.00 
  85   12:00   0.89   62.3    29    6.6   220    14.3   869.8    0.00 
  85   12:10   0.90   62.0    27    5.5   215    11.2   869.7    0.00 
  85   12:20   0.89   62.7    27    5.3   210    14.1   869.7    0.00 
  85   12:30   0.89   62.5    26    4.4   213    10.0   869.7    0.00 
  85   12:40   0.88   62.9    26    5.8   216    10.4   869.7    0.00 
  85   12:50   0.85   62.3    26    5.1   205    11.0   869.6    0.00 
  85   13:00   0.86   62.7    25    5.4   207    12.6   869.4    0.00 
  85   13:10   0.85   62.4    26    5.1   206    10.7   869.3    0.00 
  85   13:20   0.83   62.3    27    5.3   198    12.0   869.3    0.00 
  85   13:30   0.81   63.6    26    3.8   192    10.2   869.2    0.00 
  85   13:40   0.80   64.3    26    4.2   201    10.1   869.2    0.00 
  85   13:50   0.78   63.4    26    3.6   176     9.3   869.0    0.00 
  85   14:00   0.76   64.1    25    4.0   218    11.9   868.7    0.00 
  85   14:10   0.71   64.0    26    5.1   227    11.5   868.7    0.00 
  85   14:20   0.71   64.7    26    3.3   249     8.3   868.8    0.00 
  85   14:30   0.68   64.2    26    5.0   162    10.4   868.7    0.00 
  85   14:40   0.65   64.2    26    3.4   175    11.2   868.6    0.00 
  85   14:50   0.63   63.6    27    6.0   219    14.4   868.6    0.00 
  85   15:00   0.60   64.0    26    6.3   230    11.8   868.6    0.00 
  85   15:10   0.58   63.8    26    4.6   225    10.6   868.5    0.00 
  85   15:20   0.55   63.6    27    4.3   218    12.1   868.4    0.00 
  85   15:30   0.51   65.1    25    3.3   220    10.4   868.4    0.00 
  85   15:40   0.47   65.7    24    3.4   243     9.1   868.4    0.00 
  85   15:50   0.44   64.0    26    5.3   276     9.7   868.5    0.00 
  85   16:00   0.40   63.8    26    4.4   229    11.5   868.4    0.00 
  85   16:10   0.37   64.3    26    3.9   226     9.3   868.2    0.00 
  85   16:20   0.33   64.4    25    3.1   203    11.8   868.3    0.00 
  85   16:30   0.29   62.9    27    5.7   212    12.7   868.2    0.00 
  85   16:40   0.25   63.3    27    4.5   200     8.6   868.1    0.00 
  85   16:50   0.22   63.5    26    4.7   256    10.9   868.0    0.00 
  85   17:00   0.18   62.5    27    6.6   225    12.9   868.0    0.00 
  85   17:10   0.08   62.2    28    2.7   208     7.5   868.0    0.00 
  85   17:20   0.01   60.8    29    3.3   233     8.3   868.0    0.00 
  85   17:30   0.01   60.4    30    2.8   220     7.9   868.0    0.00 
  85   17:40   0.01   59.9    30    1.2    30     2.5   867.9    0.00 
  85   17:50   0.01   59.5    31    2.3    85     6.8   867.9    0.00 
  85   18:00   0.00   59.2    32    3.0    84     6.5   867.8    0.00 
  85   18:10   0.00   58.7    32    1.9    66     3.8   867.7    0.00 
  85   18:20   0.00   58.5    32    1.0    54     2.5   867.7    0.00 
  85   18:30   0.00   57.7    34    0.9   294     2.6   867.6    0.00 
  85   18:40   0.00   57.0    35    1.3   275     2.5   867.6    0.00 
  85   18:50   0.00   56.9    35    1.0   257     2.2   867.6    0.00 
  85   19:00   0.00   56.3    36    0.8   356     2.0   867.5    0.00 
  85   19:10   0.00   55.9    37    0.6    43     2.5   867.5    0.00 
  85   19:20   0.00   55.1    38    0.0   326     0.3   867.5    0.00 
  85   19:30   0.00   54.7    40    0.0   294     0.4   867.5    0.00 
  85   19:40   0.00   54.2    40    0.1   344     0.9   867.5    0.00 
  85   19:50   0.00   54.6    40    0.1    75     1.1   867.6    0.00 
  85   20:00   0.00   53.3    42    0.0   300     0.4   867.7    0.00 
  85   20:10   0.00   52.4    44    0.2    57     1.0   867.7    0.00 
  85   20:20   0.00   52.5    45    1.4   300     2.4   867.7    0.00 
  85   20:30   0.00   54.3    40    2.2   276     2.7   867.7    0.00 
  85   20:40   0.00   51.1    47    2.5   274     3.3   867.7    0.00 
  85   20:50   0.00   51.3    46    5.9   279     8.8   867.6    0.00 
  85   21:00   0.00   54.8    40    6.4   274     8.8   867.5    0.00 
  85   21:10   0.00   55.4    38    3.7   262     5.1   867.4    0.00 
  85   21:20   0.00   54.6    39    2.1   267     3.6   867.3    0.00 
  85   21:30   0.00   54.6    39    2.5   281     3.3   867.2    0.00 
  85   21:40   0.00   54.8    38    2.7   269     4.5   867.1    0.00 
  85   21:50   0.00   55.4    37    2.7   274     3.7   867.0    0.00 
  85   22:00   0.00   54.7    38    3.0   269     4.8   867.0    0.00 
  85   22:10   0.00   54.7    38    2.9   282     3.7   866.9    0.00 
  85   22:20   0.00   52.6    42    3.3   276     4.2   866.9    0.00 
  85   22:30   0.00   53.9    39    2.9   270     4.2   866.8    0.00 
  85   22:40   0.00   53.6    40    2.0   267     3.1   866.6    0.00 
  85   22:50   0.00   51.9    46    6.8   277    10.1   866.7    0.00 
  85   23:00   0.00   53.8    46    7.0   266     9.3   866.5    0.00 
  85   23:10   0.00   54.2    44    6.9   271    10.2   866.5    0.00 
  85   23:20   0.00   55.0    42    5.8   260     8.4   866.5    0.00 
  85   23:30   0.00   54.9    42    5.6   261     8.0   866.4    0.00 
  85   23:40   0.00   54.5    42    5.7   276     8.3   866.4    0.00 
  85   23:50   0.00   53.7    45    5.7   275     8.3   866.4    0.00 
  86    0:00   0.00   54.0    45    6.4   263     8.8   866.4    0.00 
  86    0:10   0.00   54.1    44    5.5   265     9.5   866.3    0.00 
  86    0:20   0.00   53.3    47    7.5   279    10.8   866.3    0.00 
  86    0:30   0.00   53.3    48    5.2   250     9.1   866.2    0.00 
  86    0:40   0.00   53.4    45    2.7   272     4.4   866.0    0.00 
  86    0:50   0.00   53.2    44    4.0   263     6.0   866.0    0.00 
  86    1:00   0.00   52.3    47    4.3   268     8.5   866.0    0.00 
  86    1:10   0.00   53.9    45    4.6   277    11.2   865.9    0.00 
  86    1:20   0.00   55.5    44    6.8   268    13.6   865.8    0.00 
  86    1:30   0.00   56.1    44    3.2   243     6.6   865.7    0.00 
  86    1:40   0.00   54.4    50    7.2   255    11.0   865.5    0.00 
  86    1:50   0.00   53.0    52    6.7   262    10.8   865.4    0.00 
  86    2:00   0.00   52.7    52    8.8   296    16.4   865.4    0.00 
  86    2:10   0.00   52.9    53   10.8   302    17.1   865.2    0.00 
  86    2:20   0.00   52.6    54   12.3   302    22.1   865.1    0.00 
  86    2:30   0.00   52.4    55   14.7   316    23.7   865.1    0.00 
  86    2:40   0.00   51.1    58   16.5   312    25.1   865.1    0.00 
  86    2:50   0.00   50.1    58   17.5   300    29.1   865.0    0.00 
  86    3:00   0.00   50.5    55   21.0   305    29.0   864.7    0.00 
  86    3:10   0.00   49.9    56   24.0   311    33.5   864.6    0.00 
  86    3:20   0.00   50.0    53   26.3   305    36.6   864.4    0.00 
  86    3:30   0.00   50.7    48   30.9   310    42.9   864.3    0.00 
  86    3:40   0.00   50.9    46   30.3   307    41.0   864.4    0.00 
  86    3:50   0.00   50.8    45   29.6   309    42.9   864.5    0.00 
  86    4:00   0.00   50.4    46   27.5   305    40.1   864.5    0.00 
  86    4:10   0.00   49.7    48   27.0   305    38.6   864.6    0.00 
  86    4:20   0.00   49.8    45   24.6   311    37.8   864.6    0.00 
  86    4:30   0.00   50.2    41   26.0   300    40.4   864.3    0.00 
  86    4:40   0.00   51.4    34   26.7   299    43.0   864.0    0.00 
  86    4:50   0.00   51.2    35   26.8   296    39.2   864.0    0.00 
  86    5:00   0.00   50.9    36   29.1   292    41.3   863.9    0.00 
  86    5:10   0.00   51.6    32   27.0   290    38.3   863.9    0.00 
  86    5:20   0.00   51.8    31   28.0   297    38.4   863.8    0.00 
  86    5:30   0.00   51.6    32   32.0   303    44.2   863.7    0.00 
  86    5:40   0.00   51.4    32   32.5   309    46.8   863.6    0.00 
  86    5:50   0.00   50.7    35   33.0   307    45.8   863.6    0.00 
  86    6:00   0.01   50.0    38   32.9   306    49.0   863.5    0.00 
  86    6:10   0.04   49.9    39   32.2   304    44.7   863.5    0.00 
  86    6:20   0.08   49.7    41   32.8   303    45.2   863.6    0.00 
  86    6:30   0.10   50.1    39   32.8   301    46.9   863.8    0.00 
  86    6:40   0.14   50.0    41   32.6   305    47.4   863.9    0.00 
  86    6:50   0.18   49.9    42   32.2   305    47.4   863.8    0.00 
  86    7:00   0.22   50.0    43   30.8   302    48.3   863.9    0.00 
  86    7:10   0.26   50.3    42   30.5   303    43.6   863.9    0.00 
  86    7:20   0.29   50.6    41   26.6   305    41.7   864.0    0.00 
  86    7:30   0.33   51.3    39   28.3   305    47.3   864.1    0.00 
  86    7:40   0.37   51.6    40   29.7   307    42.6   864.1    0.00 
  86    7:50   0.41   51.5    41   29.7   307    45.6   864.2    0.00 
  86    8:00   0.45   51.5    43   28.3   307    42.7   864.3    0.00 

Return to Sweeney Granite Mountains graphs page.


Western Regional Climate Center,wrcc@dri.edu